Time;durP1;ratioP1;P1;durP2;ratioP2;P2;SDS_P1;SDS_P2;PMS_P1;PMS_P2;Temp;Humidity;BMP_temperature;BMP_pressure;BME280_temperature;BME280_humidity;BME280_pressure;Samples;Min_cycle;Max_cycle;Signal;HPM_P1;HPM_P2
2024/01/01 00:00:50;;;;;;;31.50;17.90;;;;;;;-0.83;87.22;95288.04;110614;1271;22315;-77
2024/01/01 00:03:43;;;;;;;60.20;29.60;;;;;;;-0.96;86.96;95290.55;110547;1274;22096;-77
2024/01/01 00:06:11;;;;;;;33.90;17.30;;;;;;;-1.05;87.44;95283.96;110527;1274;22403;-77
2024/01/01 00:08:40;;;;;;;57.90;27.00;;;;;;;-1.07;87.80;95285.84;110523;1274;22348;-76
2024/01/01 00:11:08;;;;;;;69.70;31.90;;;;;;;-1.10;87.74;95286.29;110616;1275;22114;-77
2024/01/01 00:13:36;;;;;;;71.60;35.10;;;;;;;-1.11;87.81;95285.05;110512;1274;22411;-76
2024/01/01 00:16:04;;;;;;;54.20;27.50;;;;;;;-1.18;87.22;95283.35;109786;1274;966930;-76
2024/01/01 00:18:33;;;;;;;141.20;57.30;;;;;;;-1.29;87.45;95284.14;110569;1274;22260;-76
2024/01/01 00:21:02;;;;;;;231.10;88.70;;;;;;;-1.30;88.07;95278.44;110544;1274;22213;-76
2024/01/01 00:23:30;;;;;;;293.20;128.50;;;;;;;-1.29;88.31;95279.31;110558;1274;22266;-76
2024/01/01 00:25:58;;;;;;;253.90;110.70;;;;;;;-1.29;88.18;95277.23;110530;1274;22274;-76
2024/01/01 00:28:26;;;;;;;193.90;85.80;;;;;;;-1.31;88.20;95271.17;110584;1274;22210;-76
2024/01/01 00:30:55;;;;;;;202.20;85.70;;;;;;;-1.32;88.25;95272.36;110572;1274;22106;-77
2024/01/01 00:33:23;;;;;;;218.20;93.50;;;;;;;-1.34;88.22;95275.77;110612;1274;23136;-76
2024/01/01 00:35:52;;;;;;;180.70;71.80;;;;;;;-1.38;88.03;95273.44;110532;1274;22150;-77
2024/01/01 00:38:20;;;;;;;143.80;61.70;;;;;;;-1.42;88.42;95273.54;110536;1274;22197;-77
2024/01/01 00:40:48;;;;;;;107.90;51.70;;;;;;;-1.39;88.78;95271.02;110594;1274;22595;-77
2024/01/01 00:43:16;;;;;;;100.20;46.10;;;;;;;-1.31;88.97;95269.09;110585;1274;22861;-77
2024/01/01 00:45:45;;;;;;;97.10;43.70;;;;;;;-1.21;89.31;95266.55;110504;1274;22612;-77
2024/01/01 00:48:17;;;;;;;77.50;37.70;;;;;;;-1.11;89.06;95266.08;110577;1274;22946;-77
2024/01/01 00:50:46;;;;;;;69.20;33.90;;;;;;;-1.03;89.19;95263.48;110530;1274;22133;-77
2024/01/01 00:53:14;;;;;;;35.20;18.10;;;;;;;-0.92;89.24;95264.91;110533;1274;22121;-77
2024/01/01 00:55:43;;;;;;;34.00;18.00;;;;;;;-0.75;89.40;95268.16;110523;1274;22718;-77
2024/01/01 00:58:11;;;;;;;18.00;9.40;;;;;;;-0.62;89.36;95265.14;110562;1274;22107;-77
2024/01/01 01:00:40;;;;;;;6.40;3.50;;;;;;;-0.47;89.51;95259.72;110525;1274;22295;-77
2024/01/01 01:03:08;;;;;;;8.70;4.20;;;;;;;-0.33;89.62;95257.03;110606;1275;22914;-76
2024/01/01 01:05:37;;;;;;;4.80;2.60;;;;;;;-0.19;89.37;95257.60;110545;1274;22242;-77
2024/01/01 01:08:06;;;;;;;2.40;1.80;;;;;;;-0.07;89.49;95257.30;110558;1274;22599;-77
2024/01/01 01:10:34;;;;;;;2.50;1.60;;;;;;;0.05;89.36;95250.06;110566;1274;22302;-76
2024/01/01 01:13:04;;;;;;;4.10;2.10;;;;;;;0.15;89.41;95247.12;110503;1274;22172;-76
2024/01/01 01:15:34;;;;;;;4.00;2.70;;;;;;;0.28;89.60;95239.70;110630;1274;22883;-76
2024/01/01 01:18:02;;;;;;;2.30;1.80;;;;;;;0.39;89.52;95233.47;110519;1274;22114;-77
2024/01/01 01:20:31;;;;;;;4.30;2.60;;;;;;;0.48;89.26;95231.84;110508;1274;22566;-77
2024/01/01 01:23:01;;;;;;;7.00;3.50;;;;;;;0.52;88.98;95232.77;110643;1274;22330;-76
2024/01/01 01:25:30;;;;;;;7.20;4.80;;;;;;;0.56;88.78;95233.69;110580;1274;22311;-77
2024/01/01 01:27:59;;;;;;;10.50;6.20;;;;;;;0.61;88.66;95227.20;110582;1274;22178;-76
2024/01/01 01:30:27;;;;;;;9.50;5.90;;;;;;;0.61;88.19;95225.98;110524;1274;23063;-76
2024/01/01 01:32:55;;;;;;;11.50;7.10;;;;;;;0.61;87.95;95222.86;110514;1274;22189;-77
2024/01/01 01:35:23;;;;;;;8.70;6.00;;;;;;;0.64;88.24;95218.58;110468;1263;22115;-77
2024/01/01 01:37:52;;;;;;;4.80;2.50;;;;;;;0.68;88.29;95217.59;110535;1274;22268;-76
2024/01/01 01:40:20;;;;;;;4.50;3.20;;;;;;;0.67;88.32;95214.80;110528;1275;22852;-76
2024/01/01 01:42:48;;;;;;;5.90;3.30;;;;;;;0.66;88.13;95212.73;110448;1274;22846;-76
2024/01/01 01:45:16;;;;;;;3.50;2.30;;;;;;;0.64;87.87;95217.36;110490;1274;22132;-76
2024/01/01 01:47:45;;;;;;;5.70;3.30;;;;;;;0.57;87.63;95212.95;110495;1274;22193;-76
2024/01/01 01:50:15;;;;;;;5.70;3.20;;;;;;;0.56;87.76;95213.27;110520;1274;22850;-76
2024/01/01 01:52:44;;;;;;;8.80;5.10;;;;;;;0.50;87.39;95212.86;110589;1274;22862;-76
2024/01/01 01:55:13;;;;;;;3.30;2.50;;;;;;;0.40;87.14;95211.32;110591;1274;22130;-76
2024/01/01 01:57:43;;;;;;;5.50;3.20;;;;;;;0.30;87.15;95210.67;110543;1274;22138;-76
2024/01/01 02:00:12;;;;;;;6.30;3.60;;;;;;;0.21;87.55;95206.90;110593;1271;22147;-77
2024/01/01 02:02:42;;;;;;;6.40;2.60;;;;;;;0.18;87.61;95212.91;110642;1275;22885;-76
2024/01/01 02:05:10;;;;;;;6.30;4.70;;;;;;;0.15;87.53;95204.04;110552;1274;22899;-76
2024/01/01 02:07:40;;;;;;;10.70;5.90;;;;;;;0.07;87.40;95201.85;110595;1274;22384;-76
2024/01/01 02:10:09;;;;;;;9.70;5.40;;;;;;;0.02;87.28;95200.20;110335;1274;22872;-76
2024/01/01 02:12:37;;;;;;;13.60;8.00;;;;;;;-0.06;87.75;95197.33;110681;1274;22189;-76
2024/01/01 02:15:05;;;;;;;11.60;7.70;;;;;;;-0.10;87.51;95192.58;110502;1274;22112;-76
2024/01/01 02:17:33;;;;;;;10.00;6.10;;;;;;;-0.14;87.55;95190.11;110620;1274;22340;-76
2024/01/01 02:20:02;;;;;;;9.90;6.30;;;;;;;-0.18;87.59;95188.14;110483;1274;22161;-76
2024/01/01 02:22:41;;;;;;;11.40;7.00;;;;;;;-0.22;87.63;95190.33;110468;1274;22177;-76
2024/01/01 02:25:10;;;;;;;11.10;7.10;;;;;;;-0.25;87.70;95184.23;110469;1274;22123;-76
2024/01/01 02:27:39;;;;;;;15.40;8.60;;;;;;;-0.27;87.84;95185.41;110506;1274;22150;-76
2024/01/01 02:30:10;;;;;;;13.50;7.80;;;;;;;-0.25;87.70;95186.48;110611;1274;22379;-76
2024/01/01 02:32:39;;;;;;;13.80;8.00;;;;;;;-0.19;87.98;95186.74;110487;1274;22187;-76
2024/01/01 02:35:08;;;;;;;10.40;6.30;;;;;;;-0.15;88.09;95181.63;110488;1274;22870;-76
2024/01/01 02:37:37;;;;;;;7.60;5.00;;;;;;;-0.08;88.26;95175.86;110469;1274;22141;-76
2024/01/01 02:40:08;;;;;;;10.00;5.80;;;;;;;-0.03;88.34;95171.95;110506;1274;22189;-76
2024/01/01 02:42:37;;;;;;;8.00;5.20;;;;;;;0.02;88.35;95167.53;110524;1274;22121;-76
2024/01/01 02:45:06;;;;;;;7.90;4.80;;;;;;;0.06;88.40;95161.37;110492;1274;22120;-76
2024/01/01 02:47:35;;;;;;;8.70;4.50;;;;;;;0.07;88.25;95150.30;110446;1274;22898;-76
2024/01/01 02:50:04;;;;;;;6.20;4.30;;;;;;;0.11;88.48;95148.98;110529;1275;22267;-76
2024/01/01 02:52:32;;;;;;;8.90;3.90;;;;;;;0.20;88.69;95153.95;110478;1274;22115;-76
2024/01/01 02:55:00;;;;;;;6.00;3.60;;;;;;;0.29;88.79;95148.71;110524;1274;22295;-76
2024/01/01 02:57:29;;;;;;;9.70;3.50;;;;;;;0.34;88.66;95146.55;110600;1274;22143;-76
2024/01/01 02:59:57;;;;;;;7.20;3.40;;;;;;;0.37;88.26;95138.63;110471;1274;22911;-76
2024/01/01 03:02:25;;;;;;;7.30;3.40;;;;;;;0.42;88.39;95129.70;110656;1275;22135;-76
2024/01/01 03:04:53;;;;;;;5.30;2.50;;;;;;;0.44;88.07;95128.16;110574;1274;22131;-76
2024/01/01 03:07:22;;;;;;;3.20;2.00;;;;;;;0.46;88.27;95128.69;110501;1275;22873;-76
2024/01/01 03:09:50;;;;;;;3.40;1.90;;;;;;;0.45;88.12;95120.38;110539;1275;22127;-76
2024/01/01 03:12:18;;;;;;;6.00;2.10;;;;;;;0.48;88.17;95119.73;110487;1274;22752;-76
2024/01/01 03:14:47;;;;;;;3.40;1.90;;;;;;;0.49;88.04;95117.66;110573;1272;22211;-76
2024/01/01 03:17:15;;;;;;;3.70;2.20;;;;;;;0.51;88.16;95109.90;110493;1274;22120;-76
2024/01/01 03:19:43;;;;;;;2.90;1.60;;;;;;;0.53;88.09;95100.74;110606;1274;22372;-76
2024/01/01 03:22:11;;;;;;;2.80;1.50;;;;;;;0.57;88.19;95098.90;110468;1274;22175;-76
2024/01/01 03:24:39;;;;;;;3.10;1.90;;;;;;;0.63;88.32;95094.81;110627;1274;22269;-77
2024/01/01 03:27:07;;;;;;;6.20;2.80;;;;;;;0.63;87.73;95097.23;110507;1274;22218;-76
2024/01/01 03:29:36;;;;;;;9.20;4.40;;;;;;;0.65;88.03;95089.13;110626;1274;22140;-75
2024/01/01 03:32:04;;;;;;;5.20;2.50;;;;;;;0.68;88.01;95087.77;110463;1274;22121;-76
2024/01/01 03:34:33;;;;;;;5.30;2.70;;;;;;;0.69;87.83;95084.50;110520;1274;22193;-76
2024/01/01 03:37:01;;;;;;;8.10;3.50;;;;;;;0.69;87.93;95076.52;110503;1274;22110;-76
2024/01/01 03:39:29;;;;;;;7.60;4.40;;;;;;;0.72;88.17;95080.89;110497;1274;22325;-76
2024/01/01 03:41:57;;;;;;;5.80;2.30;;;;;;;0.70;87.78;95083.80;110465;1274;22113;-77
2024/01/01 03:44:25;;;;;;;8.60;4.80;;;;;;;0.70;87.88;95090.04;110509;1274;22175;-76
2024/01/01 03:46:54;;;;;;;5.00;2.70;;;;;;;0.69;87.73;95088.99;110492;1274;22126;-76
2024/01/01 03:49:22;;;;;;;4.90;2.90;;;;;;;0.65;87.52;95089.29;110496;1274;22127;-77
2024/01/01 03:51:51;;;;;;;5.20;3.00;;;;;;;0.60;87.40;95088.02;110593;1275;22286;-77
2024/01/01 03:54:19;;;;;;;6.90;3.60;;;;;;;0.55;87.37;95082.61;110521;1274;22824;-76
2024/01/01 03:56:47;;;;;;;5.80;2.90;;;;;;;0.54;87.65;95083.98;110500;1274;22256;-77
2024/01/01 03:59:15;;;;;;;3.30;2.00;;;;;;;0.56;87.60;95078.29;110596;1274;22269;-76
2024/01/01 04:01:43;;;;;;;9.30;5.70;;;;;;;0.54;88.36;95082.26;110479;1274;22308;-76
2024/01/01 04:04:12;;;;;;;17.90;8.10;;;;;;;0.54;87.66;95078.96;110607;1274;22280;-76
2024/01/01 04:06:40;;;;;;;13.00;6.90;;;;;;;0.57;87.87;95068.09;110574;1274;22227;-76
2024/01/01 04:09:08;;;;;;;4.80;3.00;;;;;;;0.59;87.66;95067.42;110497;1274;22174;-76
2024/01/01 04:11:36;;;;;;;19.40;10.00;;;;;;;0.61;87.82;95064.84;110492;1274;22291;-76
2024/01/01 04:14:04;;;;;;;28.10;14.10;;;;;;;0.60;87.73;95060.16;110592;1274;22114;-76
2024/01/01 04:16:33;;;;;;;59.50;30.40;;;;;;;0.62;88.09;95051.70;110500;1274;22125;-76
2024/01/01 04:19:01;;;;;;;16.20;7.60;;;;;;;0.67;88.02;95043.96;110489;1274;22111;-77
2024/01/01 04:21:29;;;;;;;7.80;4.20;;;;;;;0.70;87.91;95048.48;110622;1274;22985;-76
2024/01/01 04:23:58;;;;;;;14.00;7.50;;;;;;;0.73;88.09;95042.64;110496;1274;22140;-76
2024/01/01 04:26:26;;;;;;;161.10;65.70;;;;;;;0.77;88.24;95035.23;110588;1274;22112;-76
2024/01/01 04:28:54;;;;;;;66.70;29.00;;;;;;;0.82;88.43;95027.67;110502;1274;22391;-76
2024/01/01 04:31:22;;;;;;;170.00;75.80;;;;;;;0.86;88.62;95016.27;110553;1270;22101;-76
2024/01/01 04:33:50;;;;;;;15.00;8.50;;;;;;;0.90;88.25;95019.60;110477;1274;22108;-76
2024/01/01 04:36:19;;;;;;;3.20;1.70;;;;;;;0.95;88.36;95029.67;110530;1274;22101;-76
2024/01/01 04:38:47;;;;;;;2.80;1.80;;;;;;;1.04;88.80;95026.14;110605;1274;22284;-76
2024/01/01 04:41:16;;;;;;;11.90;6.20;;;;;;;1.15;88.66;95017.05;110577;1274;22153;-76
2024/01/01 04:43:44;;;;;;;22.10;11.50;;;;;;;1.21;88.34;95020.91;110587;1274;23052;-76
2024/01/01 04:46:13;;;;;;;11.90;6.20;;;;;;;1.27;88.30;95018.70;110495;1270;22836;-77
2024/01/01 04:48:41;;;;;;;3.00;1.80;;;;;;;1.33;88.54;95017.53;110625;1275;22992;-77
2024/01/01 04:51:10;;;;;;;3.70;1.40;;;;;;;1.35;88.20;95021.02;110366;1274;22392;-77
2024/01/01 04:53:38;;;;;;;2.00;1.50;;;;;;;1.36;88.30;95009.42;110524;1274;22106;-76
2024/01/01 04:56:06;;;;;;;55.30;26.30;;;;;;;1.38;88.15;95014.97;110539;1274;22956;-76
2024/01/01 04:58:35;;;;;;;5.30;1.90;;;;;;;1.40;88.20;95011.87;110503;1274;22073;-77
2024/01/01 05:01:03;;;;;;;25.40;13.60;;;;;;;1.45;88.28;95008.62;110593;1274;22132;-77
2024/01/01 05:03:32;;;;;;;3.90;2.40;;;;;;;1.48;87.91;95009.51;110596;1274;22193;-76
2024/01/01 05:06:00;;;;;;;11.60;6.50;;;;;;;1.45;87.85;95005.49;110639;1274;22140;-76
2024/01/01 05:08:28;;;;;;;42.80;23.30;;;;;;;1.40;87.56;95007.38;110618;1274;22145;-76
2024/01/01 05:10:57;;;;;;;16.70;9.40;;;;;;;1.38;87.64;95011.69;110620;1275;22711;-77
2024/01/01 05:13:25;;;;;;;2.80;1.90;;;;;;;1.37;87.73;95015.48;110539;1274;23083;-77
2024/01/01 05:15:53;;;;;;;4.40;1.80;;;;;;;1.38;87.95;95007.35;110526;1274;22927;-76
2024/01/01 05:18:21;;;;;;;24.70;13.40;;;;;;;1.35;87.64;95005.95;110612;1275;22269;-76
2024/01/01 05:20:49;;;;;;;17.50;9.90;;;;;;;1.28;87.15;95004.85;110587;1274;22133;-76
2024/01/01 05:23:18;;;;;;;2.60;1.90;;;;;;;1.23;87.31;94999.45;110633;1274;22471;-77
2024/01/01 05:25:46;;;;;;;4.40;3.10;;;;;;;1.21;87.49;95000.30;110396;1275;22299;-76
2024/01/01 05:28:14;;;;;;;18.40;10.50;;;;;;;1.20;87.45;95005.83;110526;1274;22228;-76
2024/01/01 05:30:42;;;;;;;25.70;12.90;;;;;;;1.12;86.80;95006.46;110521;1274;22188;-76
2024/01/01 05:33:10;;;;;;;20.60;10.10;;;;;;;1.03;86.94;95006.05;110527;1274;22972;-77
2024/01/01 05:35:39;;;;;;;18.40;10.50;;;;;;;0.94;86.95;95005.95;110496;1274;22725;-76
2024/01/01 05:38:07;;;;;;;10.40;5.90;;;;;;;0.85;87.25;95002.25;110525;1274;22315;-76
2024/01/01 05:40:38;;;;;;;11.10;6.30;;;;;;;0.85;87.36;94998.77;110518;1274;22175;-76
2024/01/01 05:43:07;;;;;;;14.20;6.30;;;;;;;0.88;87.73;94998.46;110521;1274;22194;-76
2024/01/01 05:45:36;;;;;;;8.00;4.80;;;;;;;0.90;87.60;94996.74;110455;1274;22240;-76
2024/01/01 05:48:04;;;;;;;3.70;2.00;;;;;;;0.92;87.73;94997.80;110493;1274;22273;-76
2024/01/01 05:50:33;;;;;;;8.50;4.30;;;;;;;0.93;87.94;94997.11;110606;1272;22153;-76
2024/01/01 05:53:01;;;;;;;15.50;8.50;;;;;;;0.94;88.03;94994.36;110505;1274;22112;-76
2024/01/01 05:55:31;;;;;;;79.80;39.60;;;;;;;0.99;88.16;94996.65;110590;1274;22123;-76
2024/01/01 05:58:00;;;;;;;74.70;33.80;;;;;;;1.03;88.45;94992.88;110611;1274;22485;-77
2024/01/01 06:00:29;;;;;;;67.50;31.10;;;;;;;1.11;88.28;94988.09;110505;1274;22120;-76
2024/01/01 06:02:57;;;;;;;65.30;30.30;;;;;;;1.15;88.26;94994.52;110461;1274;22903;-76
2024/01/01 06:05:25;;;;;;;93.30;42.70;;;;;;;1.17;87.93;94994.90;110561;1274;22149;-77
2024/01/01 06:07:54;;;;;;;111.40;51.10;;;;;;;1.19;87.83;94992.48;110523;1274;22147;-76
2024/01/01 06:10:23;;;;;;;56.90;26.60;;;;;;;1.26;88.28;94992.54;110494;1274;22127;-76
2024/01/01 06:12:52;;;;;;;36.30;18.70;;;;;;;1.34;88.21;94993.81;110624;1274;22138;-76
2024/01/01 06:15:20;;;;;;;119.50;62.30;;;;;;;1.32;87.60;94998.30;110556;1274;22186;-76
2024/01/01 06:17:48;;;;;;;34.00;21.10;;;;;;;1.33;87.79;95000.22;110506;1274;22648;-76
2024/01/01 06:20:16;;;;;;;79.60;42.60;;;;;;;1.31;87.69;94994.67;110461;1274;22285;-76
2024/01/01 06:22:49;;;;;;;9.90;6.00;;;;;;;1.34;88.25;94997.45;110507;1260;22897;-76
2024/01/01 06:25:17;;;;;;;9.50;3.70;;;;;;;1.42;88.30;95004.09;110240;1274;22201;-76
2024/01/01 06:27:46;;;;;;;3.80;2.30;;;;;;;1.56;88.60;95011.80;110528;1274;22104;-76
2024/01/01 06:30:15;;;;;;;3.50;1.80;;;;;;;1.66;88.30;95016.73;110566;1274;22130;-76
2024/01/01 06:32:44;;;;;;;21.80;11.10;;;;;;;1.76;88.24;95014.52;110509;1274;22122;-76
2024/01/01 06:35:12;;;;;;;35.50;17.80;;;;;;;1.83;87.94;95010.58;110487;1274;22103;-76
2024/01/01 06:37:41;;;;;;;28.20;13.90;;;;;;;1.89;87.64;95016.52;110501;1274;22142;-76
2024/01/01 06:40:09;;;;;;;16.80;8.80;;;;;;;1.93;87.54;95012.03;110535;1274;22982;-76
2024/01/01 06:42:37;;;;;;;39.40;18.70;;;;;;;2.01;87.56;95006.34;110530;1274;22219;-76
2024/01/01 06:45:07;;;;;;;32.10;15.80;;;;;;;2.08;87.86;95007.77;110528;1274;23131;-76
2024/01/01 06:47:36;;;;;;;29.00;15.10;;;;;;;2.14;87.51;95009.88;110432;1274;22145;-76
2024/01/01 06:50:04;;;;;;;36.90;16.40;;;;;;;2.11;87.02;95005.52;110484;1274;22131;-76
2024/01/01 06:52:33;;;;;;;94.40;59.40;;;;;;;2.15;87.67;95009.36;110525;1274;22146;-76
2024/01/01 06:55:01;;;;;;;43.00;24.30;;;;;;;2.21;87.52;95013.55;110548;1274;22251;-76
2024/01/01 06:57:30;;;;;;;30.60;16.40;;;;;;;2.19;86.95;95013.02;110487;1274;22853;-76
2024/01/01 06:59:58;;;;;;;33.60;17.50;;;;;;;2.10;86.43;95005.17;110505;1274;22169;-76
2024/01/01 07:02:26;;;;;;;27.00;15.70;;;;;;;2.02;86.12;95003.58;110578;1274;22842;-76
2024/01/01 07:04:54;;;;;;;32.70;19.20;;;;;;;1.91;86.10;95003.00;110562;1274;22631;-76
2024/01/01 07:07:24;;;;;;;26.50;14.00;;;;;;;1.87;86.12;95001.59;110533;1274;22125;-76
2024/01/01 07:09:52;;;;;;;22.30;13.90;;;;;;;1.79;86.30;95005.19;110509;1274;22954;-76
2024/01/01 07:12:23;;;;;;;14.50;8.90;;;;;;;1.76;86.50;94997.19;110599;1274;22090;-76
2024/01/01 07:14:51;;;;;;;11.80;7.00;;;;;;;1.71;86.33;94999.24;110610;1260;22199;-77
2024/01/01 07:17:20;;;;;;;76.30;34.70;;;;;;;1.69;86.42;95006.52;110507;1274;22299;-76
2024/01/01 07:19:49;;;;;;;30.60;17.90;;;;;;;1.69;86.44;94997.34;110587;1274;22222;-76
2024/01/01 07:22:18;;;;;;;130.50;56.40;;;;;;;1.71;86.37;95005.48;110518;1274;22125;-76
2024/01/01 07:24:46;;;;;;;44.10;23.70;;;;;;;1.69;86.32;95003.92;110520;1274;22167;-76
2024/01/01 07:27:14;;;;;;;34.00;20.70;;;;;;;1.70;86.25;95005.83;110519;1274;22142;-76
2024/01/01 07:29:42;;;;;;;64.80;33.40;;;;;;;1.69;86.19;95004.27;110561;1274;22352;-76
2024/01/01 07:32:11;;;;;;;24.00;14.60;;;;;;;1.69;86.32;94996.83;110509;1274;22141;-76
2024/01/01 07:34:39;;;;;;;25.80;15.60;;;;;;;1.68;86.29;95000.63;110502;1274;22140;-76
2024/01/01 07:37:08;;;;;;;36.90;19.30;;;;;;;1.67;86.24;94994.55;110544;1274;22128;-76
2024/01/01 07:39:36;;;;;;;76.60;34.00;;;;;;;1.69;86.30;94987.63;110556;1274;22116;-76
2024/01/01 07:42:04;;;;;;;64.90;37.70;;;;;;;1.70;86.26;94995.42;110539;1274;22198;-76
2024/01/01 07:44:33;;;;;;;59.40;35.30;;;;;;;1.72;86.21;95000.82;110521;1274;22444;-76
2024/01/01 07:47:01;;;;;;;47.00;29.50;;;;;;;1.73;86.19;94991.12;110510;1274;22941;-76
2024/01/01 07:49:29;;;;;;;47.20;25.60;;;;;;;1.74;86.24;94987.82;110542;1274;22136;-76
2024/01/01 07:51:57;;;;;;;43.00;25.70;;;;;;;1.75;86.11;94991.98;110502;1274;22249;-76
2024/01/01 07:54:26;;;;;;;49.00;27.10;;;;;;;1.75;86.09;94993.02;110571;1274;22154;-76
2024/01/01 07:56:54;;;;;;;46.20;27.50;;;;;;;1.79;86.27;94979.70;110510;1274;22121;-76
2024/01/01 07:59:22;;;;;;;47.00;26.70;;;;;;;1.81;86.34;94979.19;110503;1274;22242;-76
2024/01/01 08:01:50;;;;;;;50.90;28.90;;;;;;;1.83;86.33;94977.11;110562;1274;22921;-76
2024/01/01 08:04:19;;;;;;;33.80;21.30;;;;;;;1.86;86.32;94976.95;110543;1274;22268;-76
2024/01/01 08:06:47;;;;;;;43.30;24.90;;;;;;;1.89;86.23;94982.52;110515;1274;22283;-76
2024/01/01 08:09:15;;;;;;;41.60;24.00;;;;;;;1.92;86.17;94981.33;110553;1274;22172;-76
2024/01/01 08:11:43;;;;;;;33.90;20.60;;;;;;;1.95;86.15;94973.19;110558;1274;22293;-76
2024/01/01 08:14:12;;;;;;;50.50;30.30;;;;;;;1.98;86.01;94973.73;110494;1274;23121;-76
2024/01/01 08:16:40;;;;;;;46.10;29.10;;;;;;;2.07;86.09;94977.23;110536;1274;22258;-76
2024/01/01 08:19:08;;;;;;;78.10;42.80;;;;;;;2.12;86.31;94981.23;110514;1274;22110;-76
2024/01/01 08:21:37;;;;;;;78.50;42.20;;;;;;;2.23;86.52;94972.93;110531;1274;22147;-76
2024/01/01 08:24:05;;;;;;;68.90;35.50;;;;;;;2.34;86.39;94975.59;110501;1267;22145;-76
2024/01/01 08:26:34;;;;;;;58.80;30.90;;;;;;;2.47;86.41;94967.11;110489;1274;22329;-76
2024/01/01 08:29:02;;;;;;;58.20;29.70;;;;;;;2.61;86.68;94965.05;110530;1274;22125;-76
2024/01/01 08:31:30;;;;;;;63.70;36.70;;;;;;;2.78;86.75;94967.52;110456;1274;22146;-76
2024/01/01 08:33:58;;;;;;;32.00;20.70;;;;;;;2.93;86.83;94973.10;110536;1274;22124;-76
2024/01/01 08:36:27;;;;;;;48.00;26.90;;;;;;;3.06;86.03;94975.88;110526;1274;22110;-76
2024/01/01 08:38:56;;;;;;;25.50;14.90;;;;;;;3.14;85.13;94972.75;110528;1274;22127;-76
2024/01/01 08:41:24;;;;;;;26.10;16.10;;;;;;;3.22;84.12;94968.40;110538;1274;22192;-76
2024/01/01 08:43:56;;;;;;;33.10;22.40;;;;;;;3.34;84.78;94964.05;110575;1274;22164;-76
2024/01/01 08:46:26;;;;;;;17.70;10.00;;;;;;;3.44;82.05;94957.96;110547;1274;22319;-76
2024/01/01 08:48:55;;;;;;;17.20;11.30;;;;;;;3.52;81.58;94957.60;110533;1274;23064;-76
2024/01/01 08:51:23;;;;;;;17.20;10.90;;;;;;;3.62;82.93;94954.98;110547;1274;22360;-76
2024/01/01 08:53:51;;;;;;;17.30;11.10;;;;;;;3.73;83.21;94946.08;110540;1274;22273;-76
2024/01/01 08:56:19;;;;;;;16.90;10.60;;;;;;;3.81;82.65;94933.86;110572;1274;22106;-76
2024/01/01 08:58:48;;;;;;;17.80;12.00;;;;;;;3.89;83.04;94950.54;110518;1274;22301;-76
2024/01/01 09:01:16;;;;;;;15.70;10.10;;;;;;;3.91;81.95;94939.75;110517;1274;22133;-76
2024/01/01 09:03:44;;;;;;;17.40;10.90;;;;;;;3.89;82.30;94932.11;110569;1274;22124;-76
2024/01/01 09:06:12;;;;;;;16.20;10.50;;;;;;;3.89;82.02;94943.77;110583;1274;23089;-76
2024/01/01 09:08:43;;;;;;;16.40;10.70;;;;;;;3.84;81.45;94953.52;110533;1274;22145;-76
2024/01/01 09:11:11;;;;;;;16.50;9.90;;;;;;;3.80;81.53;94949.71;110562;1274;22764;-76
2024/01/01 09:13:40;;;;;;;16.30;10.20;;;;;;;3.73;81.46;94946.77;110563;1274;22256;-76
2024/01/01 09:16:09;;;;;;;18.00;12.20;;;;;;;3.63;81.25;94947.15;110553;1274;22280;-76
2024/01/01 09:18:37;;;;;;;18.80;11.90;;;;;;;3.58;81.58;94936.37;110510;1274;22146;-76
2024/01/01 09:21:12;;;;;;;18.20;12.20;;;;;;;3.58;81.91;94934.96;110532;1274;22912;-76
2024/01/01 09:23:41;;;;;;;18.50;12.40;;;;;;;3.55;81.58;94942.81;110516;1274;22126;-76
2024/01/01 09:26:09;;;;;;;18.60;11.70;;;;;;;3.53;81.35;94933.25;110525;1274;22122;-76
2024/01/01 09:28:40;;;;;;;19.90;12.40;;;;;;;3.50;81.21;94929.61;110586;1274;22213;-76
2024/01/01 09:31:09;;;;;;;16.90;11.30;;;;;;;3.51;81.53;94917.62;110546;1274;22081;-76
2024/01/01 09:33:39;;;;;;;16.00;10.90;;;;;;;3.54;81.66;94916.55;110535;1274;23002;-76
2024/01/01 09:36:08;;;;;;;16.00;11.40;;;;;;;3.58;81.74;94919.16;110542;1274;22777;-76
2024/01/01 09:38:36;;;;;;;19.70;12.00;;;;;;;3.62;81.69;94909.23;110555;1274;22248;-76
2024/01/01 09:41:05;;;;;;;18.00;11.40;;;;;;;3.67;81.78;94893.58;110502;1274;22755;-76
2024/01/01 09:43:33;;;;;;;24.90;15.30;;;;;;;3.74;81.88;94891.27;110589;1274;22136;-76
2024/01/01 09:46:01;;;;;;;23.60;15.00;;;;;;;3.78;81.45;94887.96;110498;1274;22147;-76
2024/01/01 09:48:29;;;;;;;25.40;15.50;;;;;;;3.82;81.58;94878.55;110578;1274;22159;-76
2024/01/01 09:50:58;;;;;;;21.20;14.10;;;;;;;3.91;81.78;94876.26;110582;1274;22125;-76
2024/01/01 09:53:26;;;;;;;17.90;11.30;;;;;;;3.99;81.82;94886.83;110538;1273;22154;-76
2024/01/01 09:55:55;;;;;;;18.40;10.90;;;;;;;4.07;81.40;94873.39;110523;1274;22133;-76
2024/01/01 09:58:23;;;;;;;15.10;10.20;;;;;;;4.16;81.29;94868.64;110601;1274;22183;-76
2024/01/01 10:00:51;;;;;;;17.20;10.70;;;;;;;4.26;81.04;94875.38;110523;1274;22871;-76
2024/01/01 10:03:20;;;;;;;22.90;14.90;;;;;;;4.33;80.64;94873.25;110540;1274;22139;-76
2024/01/01 10:05:49;;;;;;;34.10;17.10;;;;;;;4.42;80.73;94867.61;110590;1274;22967;-76
2024/01/01 10:08:18;;;;;;;16.60;11.40;;;;;;;4.58;80.88;94854.80;110602;1274;22514;-76
2024/01/01 10:10:47;;;;;;;16.40;10.20;;;;;;;4.69;79.89;94852.96;110572;1274;22359;-76
2024/01/01 10:13:16;;;;;;;16.50;10.40;;;;;;;4.79;80.24;94848.36;110551;1274;22128;-77
2024/01/01 10:15:45;;;;;;;17.30;10.50;;;;;;;4.90;80.63;94840.60;110532;1274;22820;-76
2024/01/01 10:18:16;;;;;;;21.90;14.70;;;;;;;5.03;80.51;94830.71;110504;1274;22805;-76
2024/01/01 10:20:44;;;;;;;25.30;14.70;;;;;;;5.04;78.91;94829.14;110515;1274;22218;-76
2024/01/01 10:23:19;;;;;;;17.10;10.70;;;;;;;5.26;79.22;94822.29;110528;1274;22293;-76
2024/01/01 10:25:50;;;;;;;15.30;9.60;;;;;;;5.53;80.08;94834.38;110550;1274;22586;-76
2024/01/01 10:28:24;;;;;;;14.50;9.20;;;;;;;6.13;80.39;94817.59;110456;1274;22209;-76
2024/01/01 10:30:53;;;;;;;12.10;8.40;;;;;;;6.91;78.39;94803.98;110540;1274;22180;-76
2024/01/01 10:33:23;;;;;;;13.40;9.80;;;;;;;7.38;75.28;94801.39;110532;1274;22145;-77
2024/01/01 10:35:53;;;;;;;13.70;10.00;;;;;;;7.60;72.93;94782.41;110469;1274;22139;-76
2024/01/01 10:38:24;;;;;;;13.70;9.80;;;;;;;8.20;73.56;94794.27;110593;1274;22128;-76
2024/01/01 10:40:55;;;;;;;13.50;8.90;;;;;;;8.85;69.66;94794.88;110513;1274;22196;-76
2024/01/01 10:43:30;;;;;;;12.10;9.00;;;;;;;9.44;68.39;94777.23;110520;1274;22183;-76
2024/01/01 10:46:03;;;;;;;14.10;9.40;;;;;;;10.12;66.15;94783.37;110560;1274;22162;-76
2024/01/01 10:48:33;;;;;;;12.90;9.30;;;;;;;10.44;63.39;94775.39;110496;1274;22990;-76
2024/01/01 10:51:41;;;;;;;12.10;8.50;;;;;;;10.83;61.63;94763.61;110595;1274;22275;-76
2024/01/01 10:54:41;;;;;;;14.20;10.20;;;;;;;10.74;61.51;94776.21;110516;1274;22144;-76
2024/01/01 10:57:25;;;;;;;18.20;13.30;;;;;;;10.66;62.93;94777.50;110565;1274;22230;-76
2024/01/01 11:00:03;;;;;;;15.10;10.80;;;;;;;10.87;63.40;94764.34;110569;1274;22140;-76
2024/01/01 11:02:32;;;;;;;12.90;9.10;;;;;;;10.79;64.27;94770.75;110577;1274;22762;-76
2024/01/01 11:05:11;;;;;;;10.90;7.60;;;;;;;10.60;63.54;94779.98;110560;1274;22114;-77
2024/01/01 11:07:56;;;;;;;4.40;3.80;;;;;;;10.30;63.90;94787.59;110468;1274;22194;-77
2024/01/01 11:10:49;;;;;;;4.30;3.40;;;;;;;10.00;65.02;94793.38;110524;1274;22114;-77
2024/01/01 11:13:27;;;;;;;3.00;2.60;;;;;;;9.77;65.49;94795.10;110578;1274;22133;-76
2024/01/01 11:16:05;;;;;;;3.80;2.90;;;;;;;9.49;67.16;94802.03;110491;1274;23039;-76
2024/01/01 11:18:34;;;;;;;6.00;4.10;;;;;;;9.16;68.38;94813.41;110571;1274;22237;-76
2024/01/01 11:21:09;;;;;;;3.50;2.40;;;;;;;8.82;69.30;94813.56;110602;1274;22142;-77
2024/01/01 11:23:41;;;;;;;6.10;3.00;;;;;;;8.59;70.58;94793.25;110543;1274;22752;-77
2024/01/01 11:26:34;;;;;;;2.60;2.30;;;;;;;8.37;71.97;94787.24;110570;1274;22123;-78
2024/01/01 11:29:04;;;;;;;4.50;2.90;;;;;;;8.14;72.36;94775.48;110519;1274;22266;-78
2024/01/01 11:31:34;;;;;;;3.00;2.00;;;;;;;8.04;73.01;94773.25;110587;1274;22202;-77